createdAt,value
2022-11-12T00:00:43.451Z,17.27
2022-11-12T00:03:10.528Z,19.27
2022-11-12T00:05:37.652Z,23.88
2022-11-12T00:08:05.216Z,18.60
2022-11-12T00:10:32.713Z,15.10
2022-11-12T00:13:00.006Z,15.18
2022-11-12T00:15:27.358Z,21.65
2022-11-12T00:17:54.513Z,18.65
2022-11-12T00:20:21.627Z,16.25
2022-11-12T00:22:48.769Z,17.17
2022-11-12T00:25:15.988Z,14.73
2022-11-12T00:27:43.047Z,17.08
2022-11-12T00:30:10.291Z,19.35
2022-11-12T00:32:38.019Z,19.50
2022-11-12T00:35:06.857Z,17.20
2022-11-12T00:37:35.786Z,16.13
2022-11-12T00:40:02.845Z,17.35
2022-11-12T00:42:29.897Z,18.77
2022-11-12T00:44:56.968Z,19.08
2022-11-12T00:47:24.013Z,20.30
2022-11-12T00:49:51.082Z,16.00
2022-11-12T00:52:18.136Z,15.98
2022-11-12T00:54:45.384Z,21.08
2022-11-12T00:57:12.447Z,12.35
2022-11-12T00:59:39.498Z,16.73
2022-11-12T01:02:06.597Z,18.80
2022-11-12T01:04:33.981Z,18.30
2022-11-12T01:07:01.099Z,12.20
2022-11-12T01:09:28.213Z,13.55
2022-11-12T01:11:55.438Z,15.38
2022-11-12T01:14:22.466Z,21.23
2022-11-12T01:16:49.574Z,20.50
2022-11-12T01:19:16.905Z,17.55
2022-11-12T01:21:44.437Z,15.43
2022-11-12T01:24:12.130Z,17.40
2022-11-12T01:26:39.349Z,19.20
2022-11-12T01:29:06.767Z,19.33
2022-11-12T01:31:35.183Z,18.75
2022-11-12T01:34:03.717Z,19.33
2022-11-12T01:36:32.406Z,17.30
2022-11-12T01:38:59.436Z,19.17
2022-11-12T01:41:27.716Z,16.15
2022-11-12T01:44:11.286Z,18.75
2022-11-12T01:46:42.258Z,18.40
2022-11-12T01:49:11.979Z,18.98
2022-11-12T01:51:41.342Z,18.42
2022-11-12T01:54:10.021Z,20.70
2022-11-12T01:56:40.571Z,23.35
2022-11-12T01:59:12.701Z,17.52
2022-11-12T02:01:40.063Z,20.38
2022-11-12T02:04:07.167Z,16.50
2022-11-12T02:06:35.484Z,15.90
2022-11-12T02:09:02.670Z,14.95
2022-11-12T02:11:29.713Z,18.30
2022-11-12T02:14:02.971Z,20.20
2022-11-12T02:16:30.001Z,18.30
2022-11-12T02:18:57.303Z,14.63
2022-11-12T02:21:25.168Z,17.02
2022-11-12T02:24:02.679Z,23.23
2022-11-12T02:26:31.288Z,18.10
2022-11-12T02:28:58.363Z,17.27
2022-11-12T02:31:25.629Z,16.73
2022-11-12T02:33:52.684Z,17.52
2022-11-12T02:36:20.161Z,17.00
2022-11-12T02:38:47.235Z,17.90
2022-11-12T02:41:14.270Z,18.90
2022-11-12T02:43:41.851Z,17.15
2022-11-12T02:46:08.893Z,14.77
2022-11-12T02:48:35.972Z,14.40
2022-11-12T02:51:03.138Z,17.65
2022-11-12T02:53:32.354Z,15.50
2022-11-12T02:56:00.186Z,16.52
2022-11-12T02:58:27.550Z,16.25
2022-11-12T03:00:55.142Z,14.90
2022-11-12T03:03:22.191Z,13.73
2022-11-12T03:05:59.546Z,15.48
2022-11-12T03:08:27.057Z,14.77
2022-11-12T03:10:54.434Z,15.65
2022-11-12T03:13:21.862Z,17.73
2022-11-12T03:15:48.964Z,15.50
2022-11-12T03:18:16.322Z,13.27
2022-11-12T03:20:43.486Z,16.73
2022-11-12T03:23:11.495Z,17.30
2022-11-12T03:25:38.644Z,15.32
2022-11-12T03:28:12.612Z,16.63
2022-11-12T03:30:40.684Z,18.95
2022-11-12T03:33:08.536Z,17.17
2022-11-12T03:35:35.854Z,15.95
2022-11-12T03:38:03.545Z,17.65
2022-11-12T03:40:30.803Z,14.77
2022-11-12T03:42:57.917Z,14.18
2022-11-12T03:45:26.095Z,13.65
2022-11-12T03:47:54.719Z,20.67
2022-11-12T03:50:22.814Z,19.73
2022-11-12T03:52:50.862Z,18.65
2022-11-12T03:55:19.588Z,17.30
2022-11-12T03:57:48.344Z,17.33
2022-11-12T04:00:15.870Z,14.63
2022-11-12T04:02:43.028Z,14.85
2022-11-12T04:05:29.362Z,17.15
2022-11-12T04:08:24.264Z,15.13
2022-11-12T04:10:51.879Z,14.80
2022-11-12T04:13:28.103Z,15.65
2022-11-12T04:16:19.869Z,16.00
2022-11-12T04:19:06.772Z,11.98
2022-11-12T04:21:52.168Z,15.27
2022-11-12T04:24:39.439Z,16.55
2022-11-12T04:27:07.080Z,13.90
2022-11-12T04:29:52.893Z,13.80
2022-11-12T04:32:20.363Z,14.00
2022-11-12T04:34:47.494Z,17.35
2022-11-12T04:37:14.634Z,21.48
2022-11-12T04:39:41.702Z,31.15
2022-11-12T04:42:44.950Z,16.00
2022-11-12T04:45:12.029Z,21.58
2022-11-12T04:47:40.255Z,19.40
2022-11-12T04:50:09.860Z,24.35
2022-11-12T04:52:36.918Z,12.50
2022-11-12T04:55:04.128Z,14.38
2022-11-12T04:57:34.241Z,16.98
2022-11-12T05:00:01.361Z,30.40
2022-11-12T05:02:28.396Z,19.55
2022-11-12T05:04:55.417Z,22.35
2022-11-12T05:07:23.199Z,32.10
2022-11-12T05:09:50.310Z,17.30
2022-11-12T05:12:17.434Z,12.38
2022-11-12T05:14:44.554Z,21.42
2022-11-12T05:17:11.578Z,18.80
2022-11-12T05:19:38.655Z,14.65
2022-11-12T05:22:05.717Z,11.73
2022-11-12T05:24:42.008Z,11.57
2022-11-12T05:27:11.556Z,10.73
2022-11-12T05:29:38.635Z,11.52
2022-11-12T05:32:07.098Z,13.55
2022-11-12T05:34:34.276Z,13.48
2022-11-12T05:37:02.452Z,10.93
2022-11-12T05:39:29.488Z,11.77
2022-11-12T05:42:13.720Z,13.15
2022-11-12T05:44:41.628Z,10.85
2022-11-12T05:47:08.681Z,11.65
2022-11-12T05:49:35.752Z,10.05
2022-11-12T05:52:02.776Z,11.27
2022-11-12T05:54:29.802Z,11.70
2022-11-12T05:56:56.856Z,13.15
2022-11-12T05:59:24.472Z,16.58
2022-11-12T06:01:51.562Z,14.48
2022-11-12T06:04:18.720Z,11.35
2022-11-12T06:06:46.149Z,11.07
2022-11-12T06:09:13.293Z,13.30
2022-11-12T06:11:40.425Z,10.00
2022-11-12T06:14:07.501Z,16.95
2022-11-12T06:16:34.549Z,13.60
2022-11-12T06:19:01.600Z,14.45
2022-11-12T06:21:28.794Z,13.38
2022-11-12T06:23:57.896Z,13.00
2022-11-12T06:26:26.026Z,10.27
2022-11-12T06:28:53.479Z,9.88
2022-11-12T06:31:21.191Z,11.45
2022-11-12T06:33:48.585Z,9.77
2022-11-12T06:36:17.030Z,11.00
2022-11-12T06:38:44.169Z,8.77
2022-11-12T06:41:12.132Z,11.02
2022-11-12T06:43:39.405Z,10.60
2022-11-12T06:46:16.467Z,11.82
2022-11-12T06:48:43.772Z,12.45
2022-11-12T06:51:21.049Z,10.88
2022-11-12T06:53:48.562Z,19.08
2022-11-12T06:56:15.717Z,15.35
2022-11-12T06:58:43.007Z,14.75
2022-11-12T07:01:12.437Z,17.40
2022-11-12T07:03:40.079Z,15.82
2022-11-12T07:06:08.117Z,17.48
2022-11-12T07:08:35.306Z,13.68
2022-11-12T07:11:02.572Z,17.17
2022-11-12T07:13:33.958Z,18.58
2022-11-12T07:16:01.716Z,47.60
2022-11-12T07:18:29.232Z,16.13
2022-11-12T07:21:00.768Z,14.43
2022-11-12T07:23:28.544Z,9.82
2022-11-12T07:25:56.644Z,11.13
2022-11-12T07:28:24.672Z,14.88
2022-11-12T07:30:55.877Z,12.73
2022-11-12T07:33:23.592Z,12.00
2022-11-12T07:35:56.717Z,10.38
2022-11-12T07:38:24.041Z,9.38
2022-11-12T07:40:51.279Z,11.27
2022-11-12T07:43:18.492Z,11.15
2022-11-12T07:45:45.538Z,8.95
2022-11-12T07:48:12.629Z,12.15
2022-11-12T07:50:39.678Z,11.35
2022-11-12T07:53:07.104Z,10.68
2022-11-12T07:55:34.431Z,14.00
2022-11-12T07:58:01.464Z,10.93
2022-11-12T08:00:28.523Z,12.00
2022-11-12T08:02:55.569Z,12.27
2022-11-12T08:05:22.729Z,12.32
2022-11-12T08:07:49.888Z,12.00
2022-11-12T08:10:17.145Z,14.40
2022-11-12T08:12:44.176Z,12.45
2022-11-12T08:15:11.292Z,12.13
2022-11-12T08:17:41.389Z,13.57
2022-11-12T08:20:08.714Z,13.90
2022-11-12T08:22:35.821Z,12.48
2022-11-12T08:25:02.879Z,13.05
2022-11-12T08:27:29.983Z,21.42
2022-11-12T08:29:58.690Z,56.92
2022-11-12T08:32:26.318Z,46.13
2022-11-12T08:34:53.433Z,45.50
2022-11-12T08:37:20.815Z,28.38
2022-11-12T08:39:47.952Z,27.00
2022-11-12T08:42:15.240Z,28.60
2022-11-12T08:44:42.537Z,24.50
2022-11-12T08:47:10.027Z,20.88
2022-11-12T08:49:37.215Z,18.15
2022-11-12T08:52:04.620Z,13.38
2022-11-12T08:54:31.736Z,16.23
2022-11-12T08:56:58.947Z,13.80
2022-11-12T08:59:26.008Z,15.80
2022-11-12T09:01:53.155Z,14.10
2022-11-12T09:04:20.691Z,15.90
2022-11-12T09:06:52.720Z,12.30
2022-11-12T09:09:20.991Z,15.88
2022-11-12T09:11:48.153Z,13.23
2022-11-12T09:14:15.443Z,13.85
2022-11-12T09:16:42.555Z,12.77
2022-11-12T09:19:09.692Z,14.38
2022-11-12T09:21:36.750Z,15.80
2022-11-12T09:24:03.985Z,18.23
2022-11-12T09:26:31.045Z,16.92
2022-11-12T09:28:58.240Z,14.40
2022-11-12T09:31:25.770Z,14.77
2022-11-12T09:33:52.836Z,11.32
2022-11-12T09:36:19.910Z,12.00
2022-11-12T09:38:47.046Z,9.05
2022-11-12T09:41:18.314Z,8.45
2022-11-12T09:43:49.859Z,11.85
2022-11-12T09:46:28.724Z,8.45
2022-11-12T09:49:07.622Z,8.02
2022-11-12T09:51:36.688Z,7.80
2022-11-12T09:54:08.157Z,7.75
2022-11-12T09:56:35.330Z,8.32
2022-11-12T09:59:02.473Z,8.88
2022-11-12T10:01:38.726Z,8.45
2022-11-12T10:04:05.867Z,8.63
2022-11-12T10:06:59.529Z,8.68
2022-11-12T10:09:35.343Z,9.25
2022-11-12T10:12:30.219Z,6.70
2022-11-12T10:14:57.275Z,6.82
2022-11-12T10:17:42.658Z,8.57
2022-11-12T10:20:17.517Z,7.72
2022-11-12T10:22:57.010Z,7.28
2022-11-12T10:25:25.777Z,11.07
2022-11-12T10:27:55.457Z,7.63
2022-11-12T10:30:26.940Z,7.65
2022-11-12T10:32:54.228Z,8.77
2022-11-12T10:35:23.139Z,9.95
2022-11-12T10:37:50.329Z,8.98
2022-11-12T10:40:28.688Z,10.15
2022-11-12T10:42:57.640Z,9.68
2022-11-12T10:45:24.757Z,7.93
2022-11-12T10:47:52.074Z,8.00
2022-11-12T10:50:21.370Z,9.05
2022-11-12T10:52:55.778Z,10.50
2022-11-12T10:55:24.601Z,10.68
2022-11-12T10:58:04.323Z,7.68
2022-11-12T11:00:31.656Z,10.25
2022-11-12T11:02:59.681Z,10.13
2022-11-12T11:05:26.741Z,9.63
2022-11-12T11:07:53.927Z,7.90
2022-11-12T11:10:24.400Z,9.13
2022-11-12T11:13:09.062Z,7.10
2022-11-12T11:15:36.522Z,8.75
2022-11-12T11:18:03.686Z,9.25
2022-11-12T11:20:42.437Z,9.98
2022-11-12T11:23:22.655Z,10.48
2022-11-12T11:25:51.430Z,12.00
2022-11-12T11:28:26.827Z,9.65
2022-11-12T11:31:00.517Z,10.23
2022-11-12T11:33:30.620Z,8.90
2022-11-12T11:36:00.830Z,10.57
2022-11-12T11:38:28.136Z,8.20
2022-11-12T11:41:14.496Z,9.45
2022-11-12T11:43:50.788Z,6.32
2022-11-12T11:46:17.885Z,7.38
2022-11-12T11:48:48.060Z,7.50
2022-11-12T11:51:25.836Z,8.75
2022-11-12T11:54:12.280Z,8.55
2022-11-12T11:56:43.700Z,10.45
2022-11-12T11:59:29.744Z,8.32
2022-11-12T12:02:20.098Z,7.90
2022-11-12T12:04:49.133Z,7.53
2022-11-12T12:07:32.026Z,7.45
2022-11-12T12:10:11.519Z,9.27
2022-11-12T12:12:57.293Z,12.45
2022-11-12T12:15:45.766Z,8.27
2022-11-12T12:18:15.962Z,8.45
2022-11-12T12:20:53.970Z,9.00
2022-11-12T12:23:47.553Z,8.48
2022-11-12T12:26:30.032Z,6.72
2022-11-12T12:29:07.332Z,9.93
2022-11-12T12:31:38.086Z,8.95
2022-11-12T12:34:07.326Z,7.38
2022-11-12T12:36:39.506Z,8.90
2022-11-12T12:39:12.439Z,9.05
2022-11-12T12:41:58.186Z,6.95
2022-11-12T12:44:46.731Z,7.50
2022-11-12T12:47:14.814Z,9.73
2022-11-12T12:49:42.364Z,8.40
2022-11-12T12:52:12.399Z,7.70
2022-11-12T12:54:39.421Z,8.88
2022-11-12T12:57:26.607Z,7.82
2022-11-12T13:00:15.604Z,9.55
2022-11-12T13:02:42.848Z,8.52
2022-11-12T13:05:27.150Z,9.02
2022-11-12T13:07:54.384Z,7.70
2022-11-12T13:10:39.881Z,9.18
2022-11-12T13:13:29.000Z,7.80
2022-11-12T13:15:59.713Z,9.25
2022-11-12T13:18:39.606Z,8.57
2022-11-12T13:21:14.787Z,9.55
2022-11-12T13:24:09.773Z,7.97
2022-11-12T13:26:56.001Z,14.52
2022-11-12T13:29:25.945Z,8.40
2022-11-12T13:32:11.855Z,7.93
2022-11-12T13:34:38.991Z,8.30
2022-11-12T13:37:06.568Z,10.20
2022-11-12T13:39:36.525Z,9.32
2022-11-12T13:42:31.386Z,10.15
2022-11-12T13:45:00.203Z,9.57
2022-11-12T13:47:29.357Z,12.98
2022-11-12T13:49:59.389Z,10.02
2022-11-12T13:52:27.675Z,9.32
2022-11-12T13:55:05.849Z,10.75
2022-11-12T13:57:33.244Z,10.45
2022-11-12T14:00:11.315Z,9.13
2022-11-12T14:02:41.583Z,10.32
2022-11-12T14:05:19.142Z,9.88
2022-11-12T14:07:55.230Z,9.48
2022-11-12T14:10:22.379Z,10.27
2022-11-12T14:13:08.237Z,11.13
2022-11-12T14:15:38.496Z,10.75
2022-11-12T14:18:19.919Z,9.82
2022-11-12T14:20:47.433Z,11.65
2022-11-12T14:23:24.580Z,10.82
2022-11-12T14:25:54.428Z,15.05
2022-11-12T14:28:24.757Z,9.57
2022-11-12T14:30:52.213Z,10.95
2022-11-12T14:33:21.361Z,11.95
2022-11-12T14:35:50.129Z,11.57
2022-11-12T14:38:32.425Z,11.57
2022-11-12T14:41:02.175Z,9.13
2022-11-12T14:43:32.465Z,13.52
2022-11-12T14:46:00.458Z,14.70
2022-11-12T14:48:28.024Z,12.32
2022-11-12T14:50:58.414Z,15.13
2022-11-12T14:53:39.688Z,12.90
2022-11-12T14:56:07.898Z,12.38
2022-11-12T14:58:35.476Z,13.70
2022-11-12T15:04:18.530Z,14.90
2022-11-12T15:06:56.857Z,20.95
2022-11-12T15:09:35.097Z,11.23
2022-11-12T15:12:03.285Z,11.43
2022-11-12T15:14:30.945Z,11.85
2022-11-12T15:17:00.707Z,11.82
2022-11-12T15:19:29.658Z,11.98
2022-11-12T15:21:58.249Z,12.57
2022-11-12T15:24:27.076Z,14.63
2022-11-12T15:26:55.037Z,17.75
2022-11-12T15:29:28.016Z,22.15
2022-11-12T15:32:15.308Z,19.20
2022-11-12T15:34:43.233Z,14.77
2022-11-12T15:37:19.772Z,16.50
2022-11-12T15:39:48.572Z,14.40
2022-11-12T15:42:37.497Z,17.63
2022-11-12T15:45:16.032Z,16.35
2022-11-12T15:47:43.246Z,12.63
2022-11-12T15:50:16.686Z,12.90
2022-11-12T15:52:43.944Z,11.05
2022-11-12T15:55:12.820Z,14.75
2022-11-12T15:57:42.581Z,13.38
2022-11-12T16:00:17.802Z,11.95
2022-11-12T16:02:45.258Z,13.35
2022-11-12T16:05:16.349Z,29.13
2022-11-12T16:07:43.472Z,21.77
2022-11-12T16:10:17.480Z,21.52
2022-11-12T16:12:45.471Z,23.30
2022-11-12T16:15:20.208Z,24.25
2022-11-12T16:17:47.850Z,22.92
2022-11-12T16:20:22.868Z,20.85
2022-11-12T16:22:51.032Z,15.68
2022-11-12T16:25:19.055Z,15.45
2022-11-12T16:27:50.184Z,17.23
2022-11-12T16:30:21.628Z,20.45
2022-11-12T16:32:49.274Z,16.08
2022-11-12T16:35:16.667Z,13.70
2022-11-12T16:37:44.890Z,19.50
2022-11-12T16:40:16.211Z,17.25
2022-11-12T16:42:45.887Z,18.13
2022-11-12T16:45:16.746Z,14.45
2022-11-12T16:47:45.444Z,16.95
2022-11-12T16:50:16.595Z,15.93
2022-11-12T16:52:43.742Z,16.57
2022-11-12T16:55:11.333Z,16.38
2022-11-12T16:57:38.452Z,20.30
2022-11-12T17:00:06.532Z,15.20
2022-11-12T17:02:36.864Z,18.02
2022-11-12T17:05:26.742Z,24.13
2022-11-12T17:07:58.240Z,18.13
2022-11-12T17:10:25.586Z,21.75
2022-11-12T17:12:53.422Z,18.75
2022-11-12T17:15:20.809Z,19.25
2022-11-12T17:17:48.143Z,18.23
2022-11-12T17:20:15.292Z,15.35
2022-11-12T17:22:42.608Z,19.42
2022-11-12T17:25:09.667Z,16.25
2022-11-12T17:27:36.736Z,18.23
2022-11-12T17:30:04.840Z,18.05
2022-11-12T17:32:32.042Z,15.32
2022-11-12T17:34:59.246Z,20.23
2022-11-12T17:37:26.442Z,21.58
2022-11-12T17:39:53.631Z,19.35
2022-11-12T17:42:20.727Z,20.33
2022-11-12T17:44:47.799Z,23.05
2022-11-12T17:47:14.932Z,26.20
2022-11-12T17:49:42.332Z,21.85
2022-11-12T17:52:09.569Z,23.35
2022-11-12T17:54:36.720Z,20.70
2022-11-12T17:57:03.967Z,27.30
2022-11-12T17:59:32.500Z,28.92
2022-11-12T18:01:59.712Z,27.15
2022-11-12T18:04:30.765Z,22.88
2022-11-12T18:06:58.323Z,23.83
2022-11-12T18:09:25.692Z,26.35
2022-11-12T18:11:54.846Z,27.50
2022-11-12T18:14:23.076Z,22.85
2022-11-12T18:16:51.163Z,23.73
2022-11-12T18:19:18.384Z,20.67
2022-11-12T18:21:45.849Z,20.20
2022-11-12T18:24:16.700Z,21.50
2022-11-12T18:26:44.390Z,23.45
2022-11-12T18:29:12.674Z,18.38
2022-11-12T18:31:40.741Z,21.85
2022-11-12T18:34:10.221Z,19.40
2022-11-12T18:36:37.582Z,17.60
2022-11-12T18:39:05.119Z,21.55
2022-11-12T18:41:33.790Z,22.13
2022-11-12T18:44:02.030Z,21.52
2022-11-12T18:46:29.885Z,18.45
2022-11-12T18:48:57.112Z,26.98
2022-11-12T18:51:24.346Z,39.28
2022-11-12T18:53:51.542Z,26.83
2022-11-12T18:56:19.974Z,30.00
2022-11-12T18:58:47.992Z,26.63
2022-11-12T19:01:23.113Z,23.80
2022-11-12T19:03:54.106Z,20.23
2022-11-12T19:06:21.673Z,22.88
2022-11-12T19:08:48.924Z,37.95
2022-11-12T19:11:16.825Z,40.25
2022-11-12T19:13:43.925Z,37.72
2022-11-12T19:16:12.666Z,31.42
2022-11-12T19:18:40.308Z,27.33
2022-11-12T19:21:14.510Z,26.30
2022-11-12T19:23:42.950Z,27.83
2022-11-12T19:26:12.679Z,26.27
2022-11-12T19:28:40.461Z,23.08
2022-11-12T19:31:09.047Z,27.88
2022-11-12T19:33:36.275Z,32.30
2022-11-12T19:36:07.418Z,26.52
2022-11-12T19:38:34.708Z,29.37
2022-11-12T19:41:10.563Z,30.33
2022-11-12T19:43:41.468Z,25.67
2022-11-12T19:46:09.027Z,26.45
2022-11-12T19:48:36.300Z,23.83
2022-11-12T19:51:07.235Z,23.77
2022-11-12T19:53:37.435Z,26.60
2022-11-12T19:56:05.557Z,24.13
2022-11-12T19:58:32.794Z,30.85
2022-11-12T20:01:06.766Z,28.67
2022-11-12T20:03:34.152Z,25.58
2022-11-12T20:06:05.941Z,34.80
2022-11-12T20:08:33.271Z,27.75
2022-11-12T20:11:00.667Z,25.67
2022-11-12T20:13:28.244Z,26.60
2022-11-12T20:15:55.536Z,24.95
2022-11-12T20:18:22.629Z,30.23
2022-11-12T20:20:51.179Z,27.05
2022-11-12T20:23:18.394Z,25.55
2022-11-12T20:25:45.476Z,26.10
2022-11-12T20:28:12.642Z,26.15
2022-11-12T20:30:39.800Z,24.17
2022-11-12T20:33:06.923Z,24.38
2022-11-12T20:35:37.739Z,23.83
2022-11-12T20:38:05.302Z,22.30
2022-11-12T20:40:33.158Z,22.38
2022-11-12T20:43:00.287Z,23.48
2022-11-12T20:45:27.388Z,21.25
2022-11-12T20:47:56.211Z,24.00
2022-11-12T20:50:23.493Z,23.00
2022-11-12T20:52:50.710Z,28.85
2022-11-12T20:55:17.951Z,23.08
2022-11-12T20:57:45.807Z,25.23
2022-11-12T21:00:15.275Z,30.92
2022-11-12T21:02:43.866Z,29.75
2022-11-12T21:05:10.989Z,25.35
2022-11-12T21:07:38.011Z,26.40
2022-11-12T21:10:05.396Z,26.20
2022-11-12T21:12:32.566Z,19.77
2022-11-12T21:14:59.654Z,21.70
2022-11-12T21:17:26.765Z,24.27
2022-11-12T21:19:53.805Z,22.50
2022-11-12T21:22:20.963Z,20.10
2022-11-12T21:24:48.027Z,36.08
2022-11-12T21:27:15.227Z,37.38
2022-11-12T21:29:42.312Z,25.90
2022-11-12T21:32:09.378Z,35.95
2022-11-12T21:34:36.518Z,33.55
2022-11-12T21:37:03.602Z,27.83
2022-11-12T21:39:30.669Z,26.45
2022-11-12T21:41:57.815Z,24.02
2022-11-12T21:44:24.945Z,27.05
2022-11-12T21:46:52.005Z,23.38
2022-11-12T21:49:19.170Z,21.20
2022-11-12T21:51:46.309Z,19.27
2022-11-12T21:54:14.942Z,23.48
2022-11-12T21:56:42.413Z,20.52
2022-11-12T21:59:09.513Z,19.50
2022-11-12T22:01:36.791Z,20.17
2022-11-12T22:04:08.067Z,23.98
2022-11-12T22:06:37.097Z,24.77
2022-11-12T22:09:05.067Z,26.27
2022-11-12T22:11:35.096Z,24.17
2022-11-12T22:14:03.383Z,27.33
2022-11-12T22:16:30.535Z,25.23
2022-11-12T22:18:58.346Z,25.52
2022-11-12T22:21:27.282Z,22.15
2022-11-12T22:23:54.497Z,25.30
2022-11-12T22:26:25.143Z,21.88
2022-11-12T22:28:52.639Z,21.38
2022-11-12T22:31:21.071Z,22.58
2022-11-12T22:33:48.249Z,22.77
2022-11-12T22:36:17.149Z,24.30
2022-11-12T22:38:45.138Z,22.10
2022-11-12T22:41:13.525Z,24.75
2022-11-12T22:43:40.874Z,24.45
2022-11-12T22:46:12.524Z,20.70
2022-11-12T22:48:39.777Z,23.05
2022-11-12T22:51:10.549Z,22.13
2022-11-12T22:53:37.684Z,21.25
2022-11-12T22:56:06.086Z,24.67
2022-11-12T22:58:51.436Z,22.60
2022-11-12T23:01:18.541Z,22.90
2022-11-12T23:03:45.688Z,22.55
2022-11-12T23:06:12.862Z,21.70
2022-11-12T23:08:40.054Z,19.00
2022-11-12T23:11:08.477Z,21.08
2022-11-12T23:13:35.913Z,19.92
2022-11-12T23:16:03.231Z,23.98
2022-11-12T23:18:30.743Z,23.30
2022-11-12T23:21:05.457Z,19.10
2022-11-12T23:23:32.615Z,19.92
2022-11-12T23:26:03.891Z,22.60
2022-11-12T23:28:31.254Z,18.90
2022-11-12T23:30:58.670Z,20.50
2022-11-12T23:33:25.860Z,18.20
2022-11-12T23:35:53.072Z,20.50
2022-11-12T23:38:20.207Z,18.92
2022-11-12T23:40:56.606Z,17.70
2022-11-12T23:43:23.796Z,24.98
2022-11-12T23:45:52.059Z,23.23
2022-11-12T23:48:19.937Z,23.02
2022-11-12T23:50:48.297Z,21.17
2022-11-12T23:53:15.353Z,22.38
2022-11-12T23:55:42.906Z,23.45
2022-11-12T23:58:10.281Z,26.05
